TAF KJLN
KJLN 280520Z 2806/2906 34005KT P6SM FEW250 FM281000 36006KT P6SM FEW250 FM290200 18003KT P6SM SKC=
METAR KJLN
WC KJLN
WS KJLN
WV KJLN